createdAt,value
2023-04-28T00:01:30.390Z,9.30
2023-04-28T00:03:58.764Z,9.20
2023-04-28T00:06:26.025Z,9.20
2023-04-28T00:08:52.881Z,9.20
2023-04-28T00:11:19.823Z,9.10
2023-04-28T00:13:46.558Z,8.90
2023-04-28T00:16:13.330Z,8.80
2023-04-28T00:18:40.201Z,8.80
2023-04-28T00:21:07.395Z,8.80
2023-04-28T00:23:34.206Z,8.70
2023-04-28T00:26:01.185Z,8.60
2023-04-28T00:28:34.228Z,8.50
2023-04-28T00:31:01.672Z,8.50
2023-04-28T00:33:28.460Z,8.50
2023-04-28T00:36:01.784Z,8.60
2023-04-28T00:38:28.882Z,8.60
2023-04-28T00:40:55.709Z,8.50
2023-04-28T00:43:22.529Z,8.50
2023-04-28T00:45:50.630Z,8.50
2023-04-28T00:48:17.835Z,8.50
2023-04-28T00:50:45.773Z,8.50
2023-04-28T00:53:13.391Z,8.50
2023-04-28T00:55:40.614Z,8.40
2023-04-28T00:58:08.476Z,8.30
2023-04-28T01:00:35.609Z,8.30
2023-04-28T01:03:02.669Z,8.20
2023-04-28T01:05:30.502Z,8.10
2023-04-28T01:07:57.291Z,8.10
2023-04-28T01:10:24.063Z,8.00
2023-04-28T01:12:50.940Z,8.00
2023-04-28T01:15:20.244Z,8.00
2023-04-28T01:17:47.826Z,8.10
2023-04-28T01:20:15.532Z,8.20
2023-04-28T01:22:42.458Z,8.20
2023-04-28T01:25:09.443Z,8.20
2023-04-28T01:27:36.216Z,8.20
2023-04-28T01:30:03.128Z,8.20
2023-04-28T01:32:29.915Z,8.20
2023-04-28T01:34:56.722Z,8.30
2023-04-28T01:37:23.987Z,8.30
2023-04-28T01:39:50.955Z,8.30
2023-04-28T01:42:17.686Z,8.30
2023-04-28T01:44:44.442Z,8.30
2023-04-28T01:47:11.267Z,8.30
2023-04-28T01:49:38.001Z,8.30
2023-04-28T01:52:04.936Z,8.30
2023-04-28T01:54:31.742Z,8.30
2023-04-28T01:56:58.474Z,8.30
2023-04-28T01:59:25.408Z,8.30
2023-04-28T02:01:52.281Z,8.30
2023-04-28T02:04:19.197Z,8.40
2023-04-28T02:06:46.334Z,8.40
2023-04-28T02:09:13.110Z,8.30
2023-04-28T02:11:40.133Z,8.40
2023-04-28T02:14:07.354Z,8.40
2023-04-28T02:16:34.306Z,8.40
2023-04-28T02:19:01.373Z,8.30
2023-04-28T02:21:28.162Z,8.30
2023-04-28T02:23:55.003Z,8.30
2023-04-28T02:26:21.791Z,8.30
2023-04-28T02:28:49.230Z,8.30
2023-04-28T02:31:16.402Z,8.20
2023-04-28T02:33:43.508Z,8.20
2023-04-28T02:36:11.122Z,8.10
2023-04-28T02:38:38.036Z,8.10
2023-04-28T02:41:07.507Z,8.00
2023-04-28T02:43:34.365Z,8.00
2023-04-28T02:46:02.609Z,7.80
2023-04-28T02:48:29.446Z,7.60
2023-04-28T02:50:56.255Z,7.50
2023-04-28T02:53:23.145Z,7.40
2023-04-28T02:55:50.340Z,7.30
2023-04-28T02:58:18.228Z,7.20
2023-04-28T03:00:45.507Z,7.10
2023-04-28T03:03:12.991Z,7.10
2023-04-28T03:05:40.075Z,7.10
2023-04-28T03:08:06.965Z,7.10
2023-04-28T03:10:33.745Z,7.20
2023-04-28T03:13:00.562Z,7.20
2023-04-28T03:15:27.706Z,7.30
2023-04-28T03:17:54.576Z,7.30
2023-04-28T03:20:21.560Z,7.40
2023-04-28T03:22:48.336Z,7.40
2023-04-28T03:25:15.706Z,7.40
2023-04-28T03:27:42.516Z,7.40
2023-04-28T03:30:10.484Z,7.40
2023-04-28T03:32:37.407Z,7.20
2023-04-28T03:35:04.695Z,7.30
2023-04-28T03:37:31.497Z,7.30
2023-04-28T03:39:58.243Z,7.30
2023-04-28T03:42:25.039Z,7.30
2023-04-28T03:44:51.844Z,7.30
2023-04-28T03:47:18.654Z,7.30
2023-04-28T03:49:45.621Z,7.30
2023-04-28T03:52:12.393Z,7.20
2023-04-28T03:54:39.208Z,7.10
2023-04-28T03:57:06.005Z,7.10
2023-04-28T03:59:33.156Z,7.10
2023-04-28T04:02:00.064Z,7.00
2023-04-28T04:04:27.322Z,7.00
2023-04-28T04:06:54.547Z,7.10
2023-04-28T04:09:21.396Z,7.20
2023-04-28T04:11:48.152Z,7.20
2023-04-28T04:14:15.173Z,7.00
2023-04-28T04:16:42.454Z,7.00
2023-04-28T04:19:09.275Z,7.00
2023-04-28T04:21:36.272Z,7.00
2023-04-28T04:24:03.065Z,7.00
2023-04-28T04:26:29.823Z,7.10
2023-04-28T04:28:56.719Z,7.10
2023-04-28T04:31:23.638Z,7.10
2023-04-28T04:33:50.469Z,7.10
2023-04-28T04:36:17.372Z,7.20
2023-04-28T04:38:44.171Z,7.30
2023-04-28T04:41:10.920Z,7.40
2023-04-28T04:43:37.638Z,7.40
2023-04-28T04:46:04.842Z,7.40
2023-04-28T04:48:31.717Z,7.40
2023-04-28T04:50:58.591Z,7.50
2023-04-28T04:53:25.490Z,7.60
2023-04-28T04:55:52.292Z,7.60
2023-04-28T04:58:19.153Z,7.70
2023-04-28T05:00:46.065Z,7.80
2023-04-28T05:03:13.083Z,7.90
2023-04-28T05:05:40.540Z,8.00
2023-04-28T05:08:07.330Z,8.00
2023-04-28T05:10:34.187Z,8.10
2023-04-28T05:13:01.027Z,8.20
2023-04-28T05:15:28.238Z,8.30
2023-04-28T05:17:55.119Z,8.40
2023-04-28T05:20:21.985Z,8.50
2023-04-28T05:22:48.741Z,8.60
2023-04-28T05:25:15.960Z,8.60
2023-04-28T05:27:42.841Z,8.70
2023-04-28T05:30:10.843Z,8.80
2023-04-28T05:32:41.456Z,8.80
2023-04-28T05:35:08.694Z,8.90
2023-04-28T05:37:35.781Z,8.90
2023-04-28T05:40:02.523Z,9.00
2023-04-28T05:42:29.296Z,9.00
2023-04-28T05:44:56.102Z,9.10
2023-04-28T05:47:22.923Z,9.20
2023-04-28T05:49:49.717Z,9.20
2023-04-28T05:52:16.499Z,9.30
2023-04-28T05:54:43.328Z,9.30
2023-04-28T05:57:10.117Z,9.40
2023-04-28T05:59:36.882Z,9.40
2023-04-28T06:02:03.724Z,9.40
2023-04-28T06:04:30.803Z,9.50
2023-04-28T06:06:58.008Z,9.50
2023-04-28T06:09:25.045Z,9.60
2023-04-28T06:11:51.791Z,9.60
2023-04-28T06:14:18.685Z,9.70
2023-04-28T06:16:45.841Z,9.70
2023-04-28T06:19:18.817Z,9.70
2023-04-28T06:21:46.484Z,9.80
2023-04-28T06:24:13.299Z,9.80
2023-04-28T06:26:40.311Z,9.80
2023-04-28T06:29:07.116Z,9.80
2023-04-28T06:31:33.908Z,9.90
2023-04-28T06:34:00.680Z,9.90
2023-04-28T06:36:28.244Z,9.90
2023-04-28T06:38:55.807Z,9.90
2023-04-28T06:41:22.739Z,10.00
2023-04-28T06:43:50.974Z,10.00
2023-04-28T06:46:17.854Z,10.10
2023-04-28T06:48:44.665Z,10.10
2023-04-28T06:51:11.430Z,10.10
2023-04-28T06:53:38.409Z,10.10
2023-04-28T06:56:05.725Z,10.20
2023-04-28T06:58:32.823Z,10.20
2023-04-28T07:00:59.634Z,10.30
2023-04-28T07:03:27.887Z,10.30
2023-04-28T07:05:54.961Z,10.40
2023-04-28T07:08:21.891Z,10.40
2023-04-28T07:10:48.717Z,10.40
2023-04-28T07:13:15.626Z,10.50
2023-04-28T07:15:42.441Z,10.50
2023-04-28T07:18:10.450Z,10.60
2023-04-28T07:20:37.221Z,10.60
2023-04-28T07:23:03.967Z,10.70
2023-04-28T07:25:31.669Z,10.70
2023-04-28T07:27:58.561Z,10.80
2023-04-28T07:30:27.871Z,10.80
2023-04-28T07:32:55.556Z,10.80
2023-04-28T07:35:22.775Z,10.80
2023-04-28T07:37:49.835Z,10.90
2023-04-28T07:40:16.967Z,11.00
2023-04-28T07:42:43.714Z,11.00
2023-04-28T07:45:11.437Z,11.10
2023-04-28T07:47:39.373Z,11.10
2023-04-28T07:50:07.081Z,11.20
2023-04-28T07:52:34.886Z,11.20
2023-04-28T07:55:03.415Z,11.20
2023-04-28T07:57:30.772Z,11.20
2023-04-28T07:59:57.613Z,11.30
2023-04-28T08:02:24.469Z,11.30
2023-04-28T08:04:51.513Z,11.40
2023-04-28T08:07:18.459Z,11.40
2023-04-28T08:09:47.690Z,11.40
2023-04-28T08:12:15.085Z,11.50
2023-04-28T08:14:41.929Z,11.50
2023-04-28T08:17:09.428Z,11.60
2023-04-28T08:19:36.302Z,11.60
2023-04-28T08:22:06.157Z,11.70
2023-04-28T08:24:36.827Z,11.80
2023-04-28T08:27:04.115Z,11.80
2023-04-28T08:29:32.132Z,11.80
2023-04-28T08:31:59.674Z,11.90
2023-04-28T08:34:26.469Z,11.90
2023-04-28T08:36:53.572Z,11.90
2023-04-28T08:39:23.862Z,11.90
2023-04-28T08:41:50.868Z,11.90
2023-04-28T08:44:18.481Z,11.90
2023-04-28T08:46:47.348Z,11.90
2023-04-28T08:49:19.059Z,11.90
2023-04-28T08:51:50.546Z,11.90
2023-04-28T08:54:26.241Z,12.00
2023-04-28T08:56:55.589Z,12.00
2023-04-28T08:59:22.656Z,12.10
2023-04-28T09:01:50.660Z,12.10
2023-04-28T09:04:19.325Z,12.10
2023-04-28T09:06:46.824Z,12.20
2023-04-28T09:09:21.892Z,12.20
2023-04-28T09:11:59.641Z,12.20
2023-04-28T09:14:28.383Z,12.20
2023-04-28T09:16:56.105Z,12.30
2023-04-28T09:19:23.260Z,12.30
2023-04-28T09:21:53.821Z,12.40
2023-04-28T09:24:39.872Z,12.50
2023-04-28T09:27:10.792Z,12.50
2023-04-28T09:29:39.129Z,12.50
2023-04-28T09:32:20.272Z,12.60
2023-04-28T09:34:52.025Z,12.60
2023-04-28T09:37:27.172Z,12.60
2023-04-28T09:39:55.306Z,12.60
2023-04-28T09:42:35.302Z,12.60
2023-04-28T09:45:04.587Z,12.60
2023-04-28T09:47:33.720Z,12.60
2023-04-28T09:50:02.478Z,12.70
2023-04-28T09:52:29.310Z,12.70
2023-04-28T09:54:57.023Z,12.70
2023-04-28T09:57:24.556Z,12.70
2023-04-28T09:59:52.602Z,12.80
2023-04-28T10:02:42.892Z,12.80
2023-04-28T10:05:11.349Z,12.80
2023-04-28T10:07:39.386Z,12.80
2023-04-28T10:10:08.187Z,12.90
2023-04-28T10:12:38.141Z,12.90
2023-04-28T10:15:06.412Z,12.90
2023-04-28T10:17:34.013Z,13.00
2023-04-28T10:20:00.831Z,13.00
2023-04-28T10:22:58.484Z,12.90
2023-04-28T10:25:32.142Z,13.00
2023-04-28T10:28:00.366Z,13.00
2023-04-28T10:30:30.125Z,13.00
2023-04-28T10:33:06.936Z,13.10
2023-04-28T10:35:36.397Z,13.10
2023-04-28T10:38:09.204Z,13.10
2023-04-28T10:40:39.648Z,13.00
2023-04-28T10:43:08.861Z,13.10
2023-04-28T10:45:58.062Z,13.10
2023-04-28T10:48:34.437Z,13.00
2023-04-28T10:51:04.682Z,13.00
2023-04-28T10:53:47.444Z,13.10
2023-04-28T10:56:19.821Z,13.10
2023-04-28T10:58:49.338Z,13.20
2023-04-28T11:01:22.222Z,13.20
2023-04-28T11:04:00.215Z,13.30
2023-04-28T11:06:33.122Z,13.40
2023-04-28T11:09:19.543Z,13.50
2023-04-28T11:11:58.472Z,13.60
2023-04-28T11:14:25.187Z,13.70
2023-04-28T11:16:59.904Z,13.80
2023-04-28T11:19:30.713Z,13.80
2023-04-28T11:21:59.635Z,13.80
2023-04-28T11:24:28.983Z,13.90
2023-04-28T11:26:56.666Z,14.00
2023-04-28T11:29:41.029Z,13.90
2023-04-28T11:32:09.978Z,13.90
2023-04-28T11:34:37.869Z,14.00
2023-04-28T11:37:07.126Z,14.00
2023-04-28T11:39:34.846Z,14.10
2023-04-28T11:42:11.574Z,14.10
2023-04-28T11:44:38.478Z,14.20
2023-04-28T11:47:06.631Z,14.20
2023-04-28T11:49:44.426Z,14.20
2023-04-28T11:52:11.713Z,14.20
2023-04-28T11:54:38.909Z,14.20
2023-04-28T11:57:06.689Z,14.30
2023-04-28T11:59:35.755Z,14.40
2023-04-28T12:02:03.836Z,14.40
2023-04-28T12:04:38.321Z,14.30
2023-04-28T12:07:05.302Z,14.40
2023-04-28T12:09:35.665Z,14.50
2023-04-28T12:12:11.937Z,14.50
2023-04-28T12:14:58.220Z,14.50
2023-04-28T12:17:34.026Z,14.50
2023-04-28T12:20:07.941Z,14.60
2023-04-28T12:22:48.661Z,14.60
2023-04-28T12:25:17.973Z,14.70
2023-04-28T12:28:03.688Z,14.70
2023-04-28T12:30:35.287Z,14.80
2023-04-28T12:33:02.428Z,14.80
2023-04-28T12:35:29.959Z,14.90
2023-04-28T12:37:58.885Z,15.10
2023-04-28T12:40:26.324Z,15.20
2023-04-28T12:42:53.686Z,15.20
2023-04-28T12:45:20.502Z,15.20
2023-04-28T12:47:48.156Z,15.30
2023-04-28T12:50:15.121Z,15.30
2023-04-28T12:52:41.956Z,15.30
2023-04-28T12:55:09.304Z,15.40
2023-04-28T12:57:39.091Z,15.40
2023-04-28T13:00:07.687Z,15.40
2023-04-28T13:02:34.951Z,15.40
2023-04-28T13:05:02.165Z,15.50
2023-04-28T13:07:30.308Z,15.30
2023-04-28T13:09:57.366Z,15.30
2023-04-28T13:12:24.327Z,15.40
2023-04-28T13:14:51.271Z,15.30
2023-04-28T13:17:18.135Z,15.30
2023-04-28T13:19:45.274Z,15.40
2023-04-28T13:22:12.435Z,15.40
2023-04-28T13:24:39.432Z,15.50
2023-04-28T13:27:09.775Z,15.40
2023-04-28T13:29:37.417Z,15.40
2023-04-28T13:32:05.764Z,15.50
2023-04-28T13:34:33.255Z,15.50
2023-04-28T13:37:00.056Z,15.50
2023-04-28T13:39:26.822Z,15.60
2023-04-28T13:41:53.714Z,15.60
2023-04-28T13:44:21.184Z,15.60
2023-04-28T13:46:48.271Z,15.60
2023-04-28T13:49:15.178Z,15.60
2023-04-28T13:51:41.941Z,15.70
2023-04-28T13:54:10.563Z,15.80
2023-04-28T13:56:37.766Z,15.70
2023-04-28T13:59:04.802Z,15.80
2023-04-28T14:01:31.615Z,15.70
2023-04-28T14:03:58.910Z,15.80
2023-04-28T14:06:27.448Z,16.00
2023-04-28T14:08:54.312Z,16.00
2023-04-28T14:11:21.127Z,16.20
2023-04-28T14:13:47.882Z,16.20
2023-04-28T14:16:14.866Z,16.20
2023-04-28T14:18:41.727Z,16.20
2023-04-28T14:21:09.078Z,16.20
2023-04-28T14:23:35.865Z,16.20
2023-04-28T14:26:02.822Z,16.30
2023-04-28T14:28:29.747Z,16.20
2023-04-28T14:30:56.879Z,16.20
2023-04-28T14:33:24.335Z,16.30
2023-04-28T14:35:51.201Z,16.30
2023-04-28T14:38:18.120Z,16.20
2023-04-28T14:40:44.905Z,16.20
2023-04-28T14:43:11.695Z,16.20
2023-04-28T14:45:38.556Z,16.20
2023-04-28T14:48:07.179Z,16.20
2023-04-28T14:50:34.460Z,16.20
2023-04-28T14:53:05.675Z,16.10
2023-04-28T14:55:33.468Z,16.00
2023-04-28T14:58:00.432Z,16.00
2023-04-28T15:00:27.196Z,15.90
2023-04-28T15:02:54.308Z,15.90
2023-04-28T15:05:21.579Z,15.90
2023-04-28T15:07:48.403Z,15.90
2023-04-28T15:10:15.426Z,15.90
2023-04-28T15:12:42.958Z,16.00
2023-04-28T15:15:10.257Z,16.00
2023-04-28T15:17:37.185Z,16.00
2023-04-28T15:20:05.297Z,16.00
2023-04-28T15:22:32.152Z,16.00
2023-04-28T15:24:58.950Z,16.00
2023-04-28T15:27:25.874Z,16.00
2023-04-28T15:29:52.698Z,16.00
2023-04-28T15:32:19.501Z,15.90
2023-04-28T15:34:46.313Z,16.00
2023-04-28T15:37:38.513Z,16.00
2023-04-28T15:40:08.461Z,16.00
2023-04-28T15:42:35.256Z,16.00
2023-04-28T15:45:03.121Z,16.00
2023-04-28T15:47:31.112Z,16.00
2023-04-28T15:49:59.870Z,16.00
2023-04-28T15:52:27.237Z,16.00
2023-04-28T15:54:55.908Z,16.00
2023-04-28T15:57:22.967Z,16.00
2023-04-28T15:59:51.697Z,16.00
2023-04-28T16:02:18.878Z,16.00
2023-04-28T16:04:47.047Z,15.90
2023-04-28T16:07:14.212Z,15.90
2023-04-28T16:09:41.141Z,16.00
2023-04-28T16:12:08.516Z,16.10
2023-04-28T16:14:36.488Z,16.10
2023-04-28T16:17:03.577Z,16.10
2023-04-28T16:19:30.493Z,16.00
2023-04-28T16:21:57.448Z,16.10
2023-04-28T16:24:24.796Z,16.10
2023-04-28T16:26:52.262Z,16.00
2023-04-28T16:29:19.028Z,16.00
2023-04-28T16:31:46.112Z,16.00
2023-04-28T16:34:13.012Z,16.00
2023-04-28T16:36:40.280Z,16.00
2023-04-28T16:39:07.193Z,16.00
2023-04-28T16:41:34.194Z,16.00
2023-04-28T16:44:00.938Z,16.00
2023-04-28T16:46:27.789Z,16.00
2023-04-28T16:48:54.633Z,16.00
2023-04-28T16:51:22.171Z,16.00
2023-04-28T16:53:49.057Z,16.00
2023-04-28T16:56:15.980Z,15.90
2023-04-28T16:58:42.933Z,15.90
2023-04-28T17:01:09.798Z,15.90
2023-04-28T17:03:41.617Z,15.90
2023-04-28T17:06:09.075Z,15.80
2023-04-28T17:08:36.022Z,15.80
2023-04-28T17:11:04.751Z,15.80
2023-04-28T17:13:32.998Z,15.80
2023-04-28T17:16:00.359Z,15.70
2023-04-28T17:18:27.972Z,15.70
2023-04-28T17:20:55.170Z,15.70
2023-04-28T17:23:22.018Z,15.70
2023-04-28T17:25:48.891Z,15.60
2023-04-28T17:28:15.699Z,15.60
2023-04-28T17:30:46.905Z,15.50
2023-04-28T17:33:14.322Z,15.50
2023-04-28T17:35:41.044Z,15.50
2023-04-28T17:38:07.782Z,15.50
2023-04-28T17:40:34.532Z,15.40
2023-04-28T17:43:02.184Z,15.40
2023-04-28T17:45:29.093Z,15.40
2023-04-28T17:48:00.710Z,15.40
2023-04-28T17:50:28.409Z,15.40
2023-04-28T17:52:55.311Z,15.30
2023-04-28T17:55:23.456Z,15.30
2023-04-28T17:57:51.995Z,15.30
2023-04-28T18:00:18.865Z,15.20
2023-04-28T18:02:46.142Z,15.20
2023-04-28T18:05:13.226Z,15.20
2023-04-28T18:07:40.041Z,15.10
2023-04-28T18:10:07.331Z,15.10
2023-04-28T18:12:34.180Z,15.10
2023-04-28T18:15:01.413Z,15.00
2023-04-28T18:17:28.367Z,15.00
2023-04-28T18:19:57.089Z,15.00
2023-04-28T18:22:24.082Z,14.90
2023-04-28T18:24:51.236Z,14.90
2023-04-28T18:27:18.563Z,14.80
2023-04-28T18:29:45.702Z,14.80
2023-04-28T18:32:14.547Z,14.80
2023-04-28T18:34:41.640Z,14.70
2023-04-28T18:37:09.440Z,14.70
2023-04-28T18:39:37.041Z,14.70
2023-04-28T18:42:04.430Z,14.60
2023-04-28T18:44:31.321Z,14.60
2023-04-28T18:46:58.599Z,14.50
2023-04-28T18:49:25.809Z,14.60
2023-04-28T18:51:52.629Z,14.50
2023-04-28T18:54:19.868Z,14.50
2023-04-28T18:56:48.047Z,14.50
2023-04-28T18:59:14.876Z,14.50
2023-04-28T19:01:42.385Z,14.40
2023-04-28T19:04:09.519Z,14.40
2023-04-28T19:06:36.475Z,14.40
2023-04-28T19:09:03.526Z,14.30
2023-04-28T19:11:30.588Z,14.30
2023-04-28T19:13:58.094Z,14.30
2023-04-28T19:16:25.029Z,14.30
2023-04-28T19:18:52.140Z,14.20
2023-04-28T19:21:18.992Z,14.20
2023-04-28T19:23:46.218Z,14.20
2023-04-28T19:26:13.504Z,14.20
2023-04-28T19:28:40.391Z,14.10
2023-04-28T19:31:08.796Z,14.10
2023-04-28T19:33:35.760Z,14.10
2023-04-28T19:36:03.322Z,14.00
2023-04-28T19:38:30.185Z,14.00
2023-04-28T19:41:03.433Z,14.00
2023-04-28T19:43:30.769Z,13.90
2023-04-28T19:45:58.029Z,13.90
2023-04-28T19:48:26.199Z,13.90
2023-04-28T19:50:53.008Z,13.90
2023-04-28T19:53:19.832Z,13.90
2023-04-28T19:55:46.638Z,13.80
2023-04-28T19:58:14.933Z,13.80
2023-04-28T20:00:41.869Z,13.80
2023-04-28T20:03:09.239Z,13.80
2023-04-28T20:05:39.142Z,13.80
2023-04-28T20:08:06.046Z,13.70
2023-04-28T20:10:33.059Z,13.70
2023-04-28T20:12:59.952Z,13.70
2023-04-28T20:15:26.859Z,13.70
2023-04-28T20:17:53.797Z,13.70
2023-04-28T20:20:20.820Z,13.70
2023-04-28T20:22:50.609Z,13.70
2023-04-28T20:25:17.648Z,13.70
2023-04-28T20:27:46.914Z,13.70
2023-04-28T20:30:14.201Z,13.70
2023-04-28T20:32:41.144Z,13.70
2023-04-28T20:35:08.353Z,13.60
2023-04-28T20:37:35.118Z,13.60
2023-04-28T20:40:01.889Z,13.60
2023-04-28T20:42:29.353Z,13.50
2023-04-28T20:44:56.116Z,13.50
2023-04-28T20:47:22.943Z,13.40
2023-04-28T20:49:50.099Z,13.40
2023-04-28T20:52:18.438Z,13.40
2023-04-28T20:54:45.795Z,13.40
2023-04-28T20:57:12.631Z,13.30
2023-04-28T20:59:39.494Z,13.30
2023-04-28T21:02:06.703Z,13.30
2023-04-28T21:04:33.546Z,13.30
2023-04-28T21:07:00.303Z,13.30
2023-04-28T21:09:27.171Z,13.30
2023-04-28T21:11:54.973Z,13.20
2023-04-28T21:14:22.213Z,13.20
2023-04-28T21:16:49.672Z,13.20
2023-04-28T21:19:17.473Z,13.20
2023-04-28T21:21:44.306Z,13.20
2023-04-28T21:24:11.075Z,13.20
2023-04-28T21:26:37.854Z,13.10
2023-04-28T21:29:05.064Z,13.10
2023-04-28T21:31:31.920Z,13.10
2023-04-28T21:33:58.826Z,13.00
2023-04-28T21:36:25.673Z,13.00
2023-04-28T21:38:52.451Z,13.00
2023-04-28T21:41:20.481Z,12.90
2023-04-28T21:43:47.357Z,13.00
2023-04-28T21:46:14.284Z,13.00
2023-04-28T21:48:41.173Z,12.90
2023-04-28T21:51:07.950Z,12.90
2023-04-28T21:53:37.987Z,12.90
2023-04-28T21:56:05.690Z,12.90
2023-04-28T21:58:33.186Z,12.90
2023-04-28T22:01:01.401Z,12.90
2023-04-28T22:03:28.909Z,12.90
2023-04-28T22:05:56.536Z,12.80
2023-04-28T22:08:23.376Z,12.80
2023-04-28T22:10:50.207Z,12.70
2023-04-28T22:13:17.026Z,12.70
2023-04-28T22:15:43.857Z,12.70
2023-04-28T22:18:10.684Z,12.70
2023-04-28T22:20:37.680Z,12.60
2023-04-28T22:23:04.668Z,12.60
2023-04-28T22:25:31.868Z,12.60
2023-04-28T22:27:58.706Z,12.60
2023-04-28T22:30:26.314Z,12.60
2023-04-28T22:32:53.600Z,12.50
2023-04-28T22:35:22.161Z,12.50
2023-04-28T22:49:17.842Z,12.40
2023-04-28T22:51:44.622Z,12.30
2023-04-28T22:54:11.487Z,12.40
2023-04-28T22:56:38.270Z,12.30
2023-04-28T22:59:05.699Z,12.30
2023-04-28T23:01:32.475Z,12.30
2023-04-28T23:03:59.469Z,12.30
2023-04-28T23:06:28.580Z,12.30
2023-04-28T23:08:56.002Z,12.20
2023-04-28T23:11:24.297Z,12.20
2023-04-28T23:13:51.785Z,12.20
2023-04-28T23:16:18.692Z,12.10
2023-04-28T23:18:45.662Z,12.10
2023-04-28T23:21:12.559Z,12.20
2023-04-28T23:23:39.332Z,12.10
2023-04-28T23:26:06.163Z,12.10
2023-04-28T23:28:32.959Z,12.10
2023-04-28T23:30:59.694Z,12.10
2023-04-28T23:33:26.465Z,12.00
2023-04-28T23:35:53.750Z,12.00
2023-04-28T23:38:21.059Z,12.00
2023-04-28T23:40:47.957Z,11.90
2023-04-28T23:43:15.121Z,11.90
2023-04-28T23:45:42.668Z,11.90
2023-04-28T23:48:09.494Z,11.90
2023-04-28T23:50:36.274Z,11.90
2023-04-28T23:53:03.020Z,11.90
2023-04-28T23:55:29.953Z,11.80
2023-04-28T23:57:56.758Z,11.90
